sensor_id;sensor_type;location;lat;lon;timestamp;pressure;altitude;pressure_sealevel;temperature;humidity
67052;BME280;53957;47.222;18.670;2023-09-19T15:25:38;100078.75;;;21.99;100.00
67052;BME280;53957;47.222;18.670;2023-09-19T15:28:43;100070.13;;;21.93;100.00
67052;BME280;53957;47.222;18.670;2023-09-19T15:31:47;100077.00;;;21.87;100.00
67052;BME280;53957;47.222;18.670;2023-09-19T15:34:50;100072.16;;;21.77;100.00
67052;BME280;53957;47.222;18.670;2023-09-19T15:37:53;100071.41;;;21.76;100.00
67052;BME280;53957;47.222;18.670;2023-09-19T15:40:59;100078.41;;;21.77;100.00
67052;BME280;53957;47.222;18.670;2023-09-19T15:44:04;100079.12;;;21.74;100.00
67052;BME280;53957;47.222;18.670;2023-09-19T15:47:08;100091.13;;;21.96;100.00
67052;BME280;53957;47.222;18.670;2023-09-19T15:50:11;100080.75;;;22.02;100.00
67052;BME280;53957;47.222;18.670;2023-09-19T15:53:17;100077.59;;;21.77;100.00
67052;BME280;53957;47.222;18.670;2023-09-19T15:57:00;100076.22;;;21.86;100.00
67052;BME280;53957;47.222;18.670;2023-09-19T16:00:04;100069.69;;;21.91;100.00
67052;BME280;53957;47.222;18.670;2023-09-19T16:03:13;100077.47;;;21.93;100.00
67052;BME280;53957;47.222;18.670;2023-09-19T16:06:37;100065.91;;;21.73;100.00
67052;BME280;53957;47.222;18.670;2023-09-19T16:10:02;100073.41;;;21.56;100.00
67052;BME280;53957;47.222;18.670;2023-09-19T16:13:25;100076.44;;;21.54;100.00
67052;BME280;53957;47.222;18.670;2023-09-19T16:16:49;100083.25;;;21.45;100.00
67052;BME280;53957;47.222;18.670;2023-09-19T16:19:53;100082.25;;;21.33;100.00
67052;BME280;53957;47.222;18.670;2023-09-19T16:23:17;100089.75;;;21.01;100.00
67052;BME280;53957;47.222;18.670;2023-09-19T16:26:40;100094.81;;;21.02;100.00
67052;BME280;53957;47.222;18.670;2023-09-19T16:29:43;100098.75;;;20.85;100.00
67052;BME280;53957;47.222;18.670;2023-09-19T16:32:47;100101.37;;;20.82;100.00
67052;BME280;53957;47.222;18.670;2023-09-19T16:36:11;100108.81;;;20.69;100.00
67052;BME280;53957;47.222;18.670;2023-09-19T16:39:16;100106.22;;;20.56;100.00
67052;BME280;53957;47.222;18.670;2023-09-19T16:42:39;100106.78;;;20.46;100.00
67052;BME280;53957;47.222;18.670;2023-09-19T16:46:05;100108.69;;;20.30;100.00
67052;BME280;53957;47.222;18.670;2023-09-19T16:49:15;100112.22;;;20.14;100.00
67052;BME280;53957;47.222;18.670;2023-09-19T16:52:18;100117.63;;;19.98;100.00
67052;BME280;53957;47.222;18.670;2023-09-19T16:55:41;100123.22;;;19.89;100.00
67052;BME280;53957;47.222;18.670;2023-09-19T16:58:46;100118.28;;;19.79;100.00
67052;BME280;53957;47.222;18.670;2023-09-19T17:01:50;100122.72;;;19.71;100.00
67052;BME280;53957;47.222;18.670;2023-09-19T17:04:53;100126.28;;;19.59;100.00
67052;BME280;53957;47.222;18.670;2023-09-19T17:07:57;100132.03;;;19.58;100.00
67052;BME280;53957;47.222;18.670;2023-09-19T17:14:09;100134.22;;;19.24;100.00
67052;BME280;53957;47.222;18.670;2023-09-19T17:17:13;100133.78;;;19.09;100.00
67052;BME280;53957;47.222;18.670;2023-09-19T17:20:15;100133.03;;;19.09;100.00
67052;BME280;53957;47.222;18.670;2023-09-19T17:23:19;100134.59;;;18.97;100.00
67052;BME280;53957;47.222;18.670;2023-09-19T17:26:22;100137.31;;;18.97;100.00
67052;BME280;53957;47.222;18.670;2023-09-19T17:29:28;100145.84;;;18.87;100.00
67052;BME280;53957;47.222;18.670;2023-09-19T17:32:31;100139.56;;;18.83;100.00
67052;BME280;53957;47.222;18.670;2023-09-19T17:35:35;100140.59;;;18.78;100.00
67052;BME280;53957;47.222;18.670;2023-09-19T17:38:38;100142.28;;;18.71;100.00
67052;BME280;53957;47.222;18.670;2023-09-19T17:41:43;100148.47;;;18.71;100.00
67052;BME280;53957;47.222;18.670;2023-09-19T17:44:47;100143.53;;;18.61;100.00
67052;BME280;53957;47.222;18.670;2023-09-19T17:47:51;100144.66;;;18.47;100.00
67052;BME280;53957;47.222;18.670;2023-09-19T17:51:02;100154.66;;;18.34;100.00
67052;BME280;53957;47.222;18.670;2023-09-19T17:54:06;100155.56;;;18.14;100.00
67052;BME280;53957;47.222;18.670;2023-09-19T17:57:10;100156.22;;;18.11;100.00
67052;BME280;53957;47.222;18.670;2023-09-19T18:00:18;100156.44;;;18.06;100.00
67052;BME280;53957;47.222;18.670;2023-09-19T18:03:23;100169.88;;;17.93;100.00
67052;BME280;53957;47.222;18.670;2023-09-19T18:06:31;100162.13;;;17.92;100.00
67052;BME280;53957;47.222;18.670;2023-09-19T18:09:35;100163.44;;;17.85;100.00
67052;BME280;53957;47.222;18.670;2023-09-19T18:12:40;100167.88;;;17.69;100.00
67052;BME280;53957;47.222;18.670;2023-09-19T18:15:44;100174.84;;;17.70;100.00
67052;BME280;53957;47.222;18.670;2023-09-19T18:18:49;100176.50;;;17.62;100.00
67052;BME280;53957;47.222;18.670;2023-09-19T18:21:56;100170.84;;;17.55;100.00
67052;BME280;53957;47.222;18.670;2023-09-19T18:25:03;100175.59;;;17.58;100.00
67052;BME280;53957;47.222;18.670;2023-09-19T18:28:06;100183.63;;;17.67;100.00
67052;BME280;53957;47.222;18.670;2023-09-19T18:31:10;100192.00;;;17.65;100.00
67052;BME280;53957;47.222;18.670;2023-09-19T18:34:14;100191.56;;;17.63;100.00
67052;BME280;53957;47.222;18.670;2023-09-19T18:37:20;100195.72;;;17.61;100.00
67052;BME280;53957;47.222;18.670;2023-09-19T18:40:24;100195.34;;;17.50;100.00
67052;BME280;53957;47.222;18.670;2023-09-19T18:44:10;100201.09;;;17.39;100.00
67052;BME280;53957;47.222;18.670;2023-09-19T18:47:33;100219.25;;;17.30;100.00
67052;BME280;53957;47.222;18.670;2023-09-19T18:50:37;100202.41;;;17.33;100.00
67052;BME280;53957;47.222;18.670;2023-09-19T18:53:45;100208.22;;;17.23;100.00
67052;BME280;53957;47.222;18.670;2023-09-19T18:57:07;100210.91;;;17.23;100.00
67052;BME280;53957;47.222;18.670;2023-09-19T19:00:11;100218.44;;;17.09;100.00
67052;BME280;53957;47.222;18.670;2023-09-19T19:03:17;100216.75;;;17.04;100.00
67052;BME280;53957;47.222;18.670;2023-09-19T19:06:21;100217.25;;;16.97;100.00
67052;BME280;53957;47.222;18.670;2023-09-19T19:09:25;100217.91;;;16.94;100.00
67052;BME280;53957;47.222;18.670;2023-09-19T19:12:32;100225.00;;;16.99;100.00
67052;BME280;53957;47.222;18.670;2023-09-19T19:15:35;100215.38;;;16.89;100.00
67052;BME280;53957;47.222;18.670;2023-09-19T19:18:39;100210.94;;;16.93;100.00
67052;BME280;53957;47.222;18.670;2023-09-19T19:21:43;100215.09;;;16.82;100.00
67052;BME280;53957;47.222;18.670;2023-09-19T19:24:47;100213.56;;;16.72;100.00
67052;BME280;53957;47.222;18.670;2023-09-19T19:27:49;100215.44;;;16.71;100.00
67052;BME280;53957;47.222;18.670;2023-09-19T19:30:53;100225.00;;;16.60;100.00
67052;BME280;53957;47.222;18.670;2023-09-19T19:33:56;100224.09;;;16.47;100.00
67052;BME280;53957;47.222;18.670;2023-09-19T19:37:00;100223.47;;;16.41;100.00
67052;BME280;53957;47.222;18.670;2023-09-19T19:40:14;100229.00;;;16.45;100.00
67052;BME280;53957;47.222;18.670;2023-09-19T19:43:45;100230.91;;;16.36;100.00
67052;BME280;53957;47.222;18.670;2023-09-19T19:46:48;100236.16;;;16.41;100.00
67052;BME280;53957;47.222;18.670;2023-09-19T19:49:52;100230.50;;;16.25;100.00
67052;BME280;53957;47.222;18.670;2023-09-19T19:52:55;100238.25;;;16.26;100.00
67052;BME280;53957;47.222;18.670;2023-09-19T19:56:01;100240.16;;;16.26;100.00
67052;BME280;53957;47.222;18.670;2023-09-19T19:59:04;100243.16;;;16.24;100.00
67052;BME280;53957;47.222;18.670;2023-09-19T22:12:46;100265.34;;;15.95;100.00
67052;BME280;53957;47.222;18.670;2023-09-19T22:15:50;100265.34;;;15.95;100.00
67052;BME280;53957;47.222;18.670;2023-09-19T22:18:59;100270.72;;;15.95;100.00
67052;BME280;53957;47.222;18.670;2023-09-19T22:22:03;100270.09;;;15.98;100.00
67052;BME280;53957;47.222;18.670;2023-09-19T22:25:11;100276.25;;;16.07;100.00
67052;BME280;53957;47.222;18.670;2023-09-19T22:28:15;100273.56;;;16.25;100.00
67052;BME280;53957;47.222;18.670;2023-09-19T22:31:23;100269.75;;;16.26;100.00
67052;BME280;53957;47.222;18.670;2023-09-19T22:34:43;100276.84;;;16.31;100.00
67052;BME280;53957;47.222;18.670;2023-09-19T22:37:46;100274.44;;;16.47;100.00
67052;BME280;53957;47.222;18.670;2023-09-19T22:41:06;100274.13;;;16.48;100.00
67052;BME280;53957;47.222;18.670;2023-09-19T23:14:46;100293.78;;;15.78;100.00
67052;BME280;53957;47.222;18.670;2023-09-19T23:17:50;100286.81;;;15.60;100.00
67052;BME280;53957;47.222;18.670;2023-09-19T23:20:53;100300.75;;;15.62;100.00
67052;BME280;53957;47.222;18.670;2023-09-19T23:24:24;100294.06;;;15.51;100.00
67052;BME280;53957;47.222;18.670;2023-09-19T23:27:32;100301.34;;;15.41;100.00
67052;BME280;53957;47.222;18.670;2023-09-19T23:30:39;100300.31;;;15.20;100.00
67052;BME280;53957;47.222;18.670;2023-09-19T23:33:42;100303.66;;;15.17;100.00
67052;BME280;53957;47.222;18.670;2023-09-19T23:36:46;100307.41;;;15.07;100.00
67052;BME280;53957;47.222;18.670;2023-09-19T23:39:49;100314.94;;;14.96;100.00
67052;BME280;53957;47.222;18.670;2023-09-19T23:42:55;100302.59;;;14.95;100.00
67052;BME280;53957;47.222;18.670;2023-09-19T23:45:58;100307.38;;;14.98;100.00
67052;BME280;53957;47.222;18.670;2023-09-19T23:49:05;100304.63;;;14.80;100.00
67052;BME280;53957;47.222;18.670;2023-09-19T23:52:11;100301.25;;;14.75;100.00
67052;BME280;53957;47.222;18.670;2023-09-19T23:55:14;100301.41;;;14.70;100.00
67052;BME280;53957;47.222;18.670;2023-09-19T23:58:19;100302.66;;;14.72;100.00
